Live Oak, California
Current Conditions -  °F | °C
As of 10:53 PM on Wednesday 17 Dec 2014 (Local Time) from KMYV Reporting Station
Light Rain Light Rain  
Wind Chill: 51°   Ceiling: 5000
Heat Index: 51°   Visibility: 8mi
Dew Point: 49°   Wind: 6mph
Humidity: 92%   Direction: 110°ESE
Pressure: 30.12"   Gusts: NA
Location:  39.28°N, 121.66°W
Report Text: KMYV 180653Z AUTO 11005KT 8SM -RA OVC050 11/09 A3012 RMK AO2 SLP202 P0001 T01060094
Loading
Personal Weather Stations






























Interactive Weather Map New forecast layout! Learn more

10-Day Weather Forecast

Advertisements
Track Severe Weather on mobile